Time;durP1;ratioP1;P1;durP2;ratioP2;P2;SDS_P1;SDS_P2;PMS_P1;PMS_P2;Temp;Humidity;BMP_temperature;BMP_pressure;BME280_temperature;BME280_humidity;BME280_pressure;Samples;Min_cycle;Max_cycle;Signal;HPM_P1;HPM_P2
2022/03/19 00:03:49;;;;;;;0.15;0.15;;;;;;;0.74;100.00;104820.50;10446309;28;20395;-72
2022/03/19 00:08:49;;;;;;;0.05;0.05;;;;;;;0.94;100.00;104827.53;10470572;28;20029;-71
2022/03/19 00:13:50;;;;;;;0.10;0.10;;;;;;;0.87;100.00;104818.75;10487578;28;20013;-71
2022/03/19 00:18:50;;;;;;;0.03;0.03;;;;;;;0.81;100.00;104819.63;10484472;28;20390;-70
2022/03/19 00:23:51;;;;;;;0.05;0.05;;;;;;;0.79;100.00;104818.78;10464761;28;20506;-70
2022/03/19 00:28:51;;;;;;;0.00;0.00;;;;;;;0.81;100.00;104819.63;10475578;28;20284;-71
2022/03/19 00:33:51;;;;;;;0.00;0.00;;;;;;;0.82;100.00;104810.91;10465210;28;20025;-71
2022/03/19 00:38:52;;;;;;;0.10;0.10;;;;;;;1.01;100.00;104814.41;10487501;22;20311;-69
2022/03/19 00:43:52;;;;;;;0.10;0.10;;;;;;;1.10;100.00;104813.53;10452288;28;20267;-68
2022/03/19 00:48:53;;;;;;;0.00;0.00;;;;;;;1.04;100.00;104810.91;10450620;28;20275;-68
2022/03/19 00:53:53;;;;;;;0.03;0.03;;;;;;;0.98;100.00;104822.28;10455976;28;20611;-68
2022/03/19 00:58:55;;;;;;;0.00;0.00;;;;;;;0.87;100.00;104824.91;10455606;28;20529;-68
2022/03/19 01:03:55;;;;;;;0.00;0.00;;;;;;;0.73;100.00;104828.38;10441321;28;20022;-68
2022/03/19 01:08:55;;;;;;;0.10;0.10;;;;;;;0.74;100.00;104817.88;10404442;28;20126;-68
2022/03/19 01:13:56;;;;;;;0.00;0.00;;;;;;;0.59;100.00;104820.50;10451531;28;20029;-68
2022/03/19 01:18:56;;;;;;;0.00;0.00;;;;;;;0.27;100.00;104829.13;10452736;28;20031;-68
2022/03/19 01:23:56;;;;;;;0.00;0.00;;;;;;;0.00;100.00;104829.91;10446604;28;20021;-68
2022/03/19 01:28:57;;;;;;;0.10;0.10;;;;;;;-0.08;100.00;104842.09;10446148;28;20028;-68
2022/03/19 01:33:57;;;;;;;0.10;0.10;;;;;;;-0.26;100.00;104832.38;10453754;28;20090;-68
2022/03/19 01:38:58;;;;;;;0.10;0.10;;;;;;;-0.39;100.00;104836.63;10452583;28;20052;-68
2022/03/19 01:43:58;;;;;;;0.10;0.10;;;;;;;-0.54;100.00;104847.03;10453504;28;20455;-68
2022/03/19 01:48:58;;;;;;;0.00;0.00;;;;;;;-0.69;100.00;104837.31;10453700;28;20025;-68
2022/03/19 01:53:58;;;;;;;0.10;0.10;;;;;;;-0.81;100.00;104848.56;10453007;28;20017;-68
2022/03/19 01:58:59;;;;;;;0.20;0.20;;;;;;;-0.82;100.00;104846.78;10417476;28;20017;-69
2022/03/19 02:04:00;;;;;;;0.00;0.00;;;;;;;-0.85;100.00;104844.13;10442159;28;20921;-68
2022/03/19 02:09:01;;;;;;;0.20;0.20;;;;;;;-0.63;100.00;104850.44;10451156;28;20070;-67
2022/03/19 02:14:01;;;;;;;0.10;0.10;;;;;;;-0.36;100.00;104851.50;10452132;28;20078;-68
2022/03/19 02:19:03;;;;;;;0.10;0.10;;;;;;;-0.10;100.00;104847.31;10452851;28;20088;-68
2022/03/19 02:29:23;;;;;;;0.08;0.08;;;;;;;0.37;100.00;104835.28;10451983;28;20025;-68
2022/03/19 02:34:24;;;;;;;0.05;0.05;;;;;;;0.51;100.00;104851.06;10445213;28;20029;-68
2022/03/19 02:39:33;;;;;;;0.05;0.05;;;;;;;0.61;100.00;104842.34;10425781;28;20052;-69
2022/03/19 02:44:35;;;;;;;0.10;0.10;;;;;;;0.66;100.00;104840.59;10424994;28;20031;-68
2022/03/19 02:49:35;;;;;;;0.10;0.10;;;;;;;0.68;100.00;104838.88;10409855;28;20022;-68
2022/03/19 02:54:36;;;;;;;0.10;0.10;;;;;;;0.66;100.00;104841.47;10409683;28;20412;-68
2022/03/19 02:59:36;;;;;;;0.10;0.10;;;;;;;0.62;100.00;104834.47;10409818;28;20264;-68
2022/03/19 03:04:36;;;;;;;0.10;0.10;;;;;;;0.56;100.00;104844.97;10409463;28;20468;-68
2022/03/19 03:09:36;;;;;;;0.10;0.10;;;;;;;0.40;100.00;104837.91;10422952;28;20517;-68
2022/03/19 03:14:37;;;;;;;0.10;0.10;;;;;;;0.16;100.00;104836.06;10449618;28;20075;-67
2022/03/19 03:19:37;;;;;;;0.10;0.10;;;;;;;-0.09;100.00;104840.31;10445666;28;20277;-68
2022/03/19 03:24:37;;;;;;;0.10;0.10;;;;;;;-0.25;100.00;104839.34;10416828;28;20056;-68
2022/03/19 03:29:38;;;;;;;0.10;0.10;;;;;;;-0.23;100.00;104837.63;10408654;28;20021;-69
2022/03/19 03:34:39;;;;;;;0.10;0.10;;;;;;;-0.09;100.00;104842.94;10408389;28;20021;-69
2022/03/19 03:39:39;;;;;;;0.10;0.10;;;;;;;-0.07;100.00;104844.69;10424729;28;20021;-69
2022/03/19 03:44:42;;;;;;;0.00;0.00;;;;;;;-0.13;100.00;104855.16;10449013;28;20038;-69
2022/03/19 03:49:42;;;;;;;0.08;0.08;;;;;;;-0.21;100.00;104855.97;10449499;28;20056;-69
2022/03/19 03:54:42;;;;;;;0.10;0.10;;;;;;;-0.19;100.00;104857.72;10443354;28;20056;-69
2022/03/19 03:59:43;;;;;;;0.10;0.10;;;;;;;-0.28;100.00;104847.19;10449430;28;20464;-69
2022/03/19 04:04:43;;;;;;;0.00;0.00;;;;;;;-0.43;100.00;104840.13;10456325;28;20291;-69
2022/03/19 04:09:43;;;;;;;0.10;0.10;;;;;;;-0.53;100.00;104846.16;10455789;28;20029;-69
2022/03/19 04:14:44;;;;;;;0.10;0.10;;;;;;;-0.59;100.00;104838.25;10456845;28;20472;-68
2022/03/19 04:19:45;;;;;;;0.10;0.10;;;;;;;-0.67;100.00;104846.03;10456958;28;20013;-69
2022/03/19 04:24:46;;;;;;;0.10;0.10;;;;;;;-0.69;100.00;104829.44;10456864;28;20020;-68
2022/03/19 04:29:47;;;;;;;0.10;0.10;;;;;;;-0.77;100.00;104841.59;10450026;28;20037;-69
2022/03/19 04:34:47;;;;;;;0.10;0.10;;;;;;;-0.83;100.00;104837.19;10452279;28;20028;-68
2022/03/19 04:39:47;;;;;;;0.20;0.20;;;;;;;-0.78;100.00;104832.88;10454582;28;20016;-68
2022/03/19 04:44:47;;;;;;;0.10;0.10;;;;;;;-0.77;100.00;104839.84;10455578;28;20268;-68
2022/03/19 04:49:48;;;;;;;0.10;0.10;;;;;;;-0.79;100.00;104831.09;10456315;28;20020;-68
2022/03/19 04:54:48;;;;;;;0.10;0.10;;;;;;;-0.76;100.00;104840.72;10455087;28;20021;-69
2022/03/19 04:59:51;;;;;;;0.00;0.00;;;;;;;-0.78;100.00;104837.25;10455617;28;20255;-69
2022/03/19 05:04:52;;;;;;;0.10;0.10;;;;;;;-0.82;100.00;104828.47;10452853;28;20021;-69
2022/03/19 05:15:15;;;;;;;0.03;0.03;;;;;;;-1.06;100.00;104821.28;10454468;28;20507;-69
2022/03/19 05:20:15;;;;;;;0.10;0.10;;;;;;;-1.14;100.00;104822.94;10454780;28;20013;-69
2022/03/19 05:25:15;;;;;;;0.10;0.10;;;;;;;-1.14;100.00;104817.69;10454615;28;20129;-69
2022/03/19 05:30:16;;;;;;;0.10;0.10;;;;;;;-0.96;100.00;104825.75;10454519;28;20280;-69
2022/03/19 05:35:18;;;;;;;0.10;0.10;;;;;;;-0.70;100.00;104827.69;10453881;28;20035;-68
2022/03/19 05:40:19;;;;;;;0.15;0.15;;;;;;;0.09;100.00;104829.03;10434422;28;20642;-68
2022/03/19 05:45:20;;;;;;;0.10;0.10;;;;;;;1.03;100.00;104823.16;10442211;28;20028;-68
2022/03/19 05:50:20;;;;;;;0.00;0.00;;;;;;;1.92;100.00;104816.91;10432184;28;20494;-68
2022/03/19 05:55:21;;;;;;;0.03;0.03;;;;;;;2.96;100.00;104829.50;10452970;28;20286;-68
2022/03/19 06:00:21;;;;;;;0.00;0.00;;;;;;;3.91;100.00;104833.88;10453582;28;20684;-68
2022/03/19 06:05:22;;;;;;;0.00;0.00;;;;;;;4.81;100.00;104842.38;10452443;28;20021;-69
2022/03/19 06:10:22;;;;;;;0.00;0.00;;;;;;;5.64;100.00;104835.66;10451615;28;20020;-69
2022/03/19 06:15:22;;;;;;;0.00;0.00;;;;;;;6.41;99.13;104835.00;10452121;28;20031;-69
2022/03/19 06:20:23;;;;;;;0.00;0.00;;;;;;;6.63;92.72;104837.16;10453109;28;20024;-69
2022/03/19 06:25:23;;;;;;;0.05;0.05;;;;;;;6.85;91.61;104826.94;10445968;28;20321;-68
2022/03/19 06:30:24;;;;;;;0.00;0.00;;;;;;;6.98;90.31;104829.28;10451929;28;20021;-68
2022/03/19 06:40:44;;;;;;;0.10;0.10;;;;;;;7.41;88.65;104829.94;10455170;22;20499;-73
2022/03/19 06:45:44;;;;;;;0.10;0.10;;;;;;;7.31;88.93;104828.44;10407446;28;20061;-72
2022/03/19 06:50:45;;;;;;;0.00;0.00;;;;;;;7.74;88.23;104828.16;10392511;28;20060;-72
2022/03/19 06:55:45;;;;;;;0.10;0.10;;;;;;;8.22;86.60;104840.06;10409269;28;20033;-71
2022/03/19 07:00:46;;;;;;;0.10;0.10;;;;;;;8.45;84.21;104837.63;10409704;28;20025;-71
2022/03/19 07:05:46;;;;;;;0.10;0.10;;;;;;;9.01;83.63;104828.75;10409158;28;20464;-71
2022/03/19 07:10:46;;;;;;;0.10;0.10;;;;;;;9.12;82.72;104833.72;10408676;28;20369;-73
2022/03/19 07:15:47;;;;;;;0.10;0.10;;;;;;;9.42;82.17;104832.63;10408687;28;20048;-72
2022/03/19 07:20:47;;;;;;;0.10;0.10;;;;;;;9.72;81.04;104817.38;10409316;28;20300;-72
2022/03/19 07:25:47;;;;;;;0.10;0.10;;;;;;;9.50;81.83;104822.59;10408629;28;20026;-72
2022/03/19 07:30:48;;;;;;;0.10;0.10;;;;;;;9.65;81.04;104820.31;10408466;28;20480;-72
2022/03/19 07:35:48;;;;;;;0.10;0.10;;;;;;;9.17;82.28;104819.34;10407203;28;20037;-71
2022/03/19 07:46:07;;;;;;;0.10;0.10;;;;;;;9.00;84.32;104825.22;10408405;28;20104;-72
2022/03/19 07:51:08;;;;;;;0.00;0.00;;;;;;;8.75;87.06;104816.31;10408037;28;20455;-71
2022/03/19 07:56:08;;;;;;;0.00;0.00;;;;;;;8.73;87.19;104826.13;10389942;28;20039;-71
2022/03/19 08:01:09;;;;;;;0.00;0.00;;;;;;;8.89;87.11;104827.34;10408050;28;20388;-71
2022/03/19 08:06:09;;;;;;;0.10;0.10;;;;;;;8.87;87.95;104823.00;10407578;28;20028;-71
2022/03/19 08:11:09;;;;;;;0.10;0.10;;;;;;;8.91;87.60;104816.69;10407865;28;20017;-71
2022/03/19 08:16:10;;;;;;;0.10;0.10;;;;;;;9.05;87.48;104823.28;10407827;28;20032;-71
2022/03/19 08:21:10;;;;;;;0.10;0.10;;;;;;;8.90;88.20;104815.81;10407670;28;20051;-71
2022/03/19 08:26:10;;;;;;;0.10;0.10;;;;;;;8.79;88.05;104802.88;10407287;28;20087;-71
2022/03/19 08:31:11;;;;;;;0.00;0.00;;;;;;;8.95;89.26;104813.00;10407454;28;20021;-71
2022/03/19 08:36:11;;;;;;;0.10;0.10;;;;;;;9.06;87.84;104794.88;10407413;28;20013;-71
2022/03/19 08:41:11;;;;;;;0.10;0.10;;;;;;;9.12;87.24;104796.47;10403713;28;21288;-71
2022/03/19 08:46:12;;;;;;;0.10;0.10;;;;;;;9.23;87.37;104795.19;10405711;28;20294;-72
2022/03/19 08:56:31;;;;;;;0.10;0.10;;;;;;;9.30;88.79;104795.81;10414082;28;20118;-71
2022/03/19 09:01:31;;;;;;;0.00;0.00;;;;;;;9.26;90.76;104786.22;10414583;28;20103;-71
2022/03/19 09:06:32;;;;;;;0.10;0.10;;;;;;;9.44;91.95;104790.03;10412971;28;20025;-72
2022/03/19 09:11:34;;;;;;;0.00;0.00;;;;;;;9.51;88.69;104783.53;10413537;28;20030;-71
2022/03/19 09:16:35;;;;;;;0.00;0.00;;;;;;;9.33;86.47;104782.41;10414140;28;20060;-71
2022/03/19 09:21:36;;;;;;;0.08;0.08;;;;;;;9.20;87.69;104773.13;10413475;28;20021;-71
2022/03/19 09:26:37;;;;;;;0.10;0.10;;;;;;;9.15;88.45;104775.94;10413299;28;20017;-71
2022/03/19 09:31:37;;;;;;;0.10;0.10;;;;;;;9.06;89.04;104777.13;10413222;28;20029;-72
2022/03/19 09:36:37;;;;;;;0.10;0.10;;;;;;;9.08;91.46;104769.13;10412769;28;20104;-72
2022/03/19 09:41:38;;;;;;;0.00;0.00;;;;;;;9.26;88.57;104756.97;10394602;28;20377;-72
2022/03/19 09:46:38;;;;;;;0.00;0.00;;;;;;;9.17;86.58;104765.25;10412064;28;20025;-72
2022/03/19 09:51:40;;;;;;;0.00;0.00;;;;;;;9.12;86.78;104753.91;10412372;28;20040;-72
2022/03/19 09:56:41;;;;;;;0.00;0.00;;;;;;;9.11;85.59;104753.03;10411457;28;20021;-72
2022/03/19 10:01:41;;;;;;;0.00;0.00;;;;;;;9.16;85.08;104752.88;10410400;28;20026;-72
2022/03/19 10:12:19;;;;;;;0.10;0.10;;;;;;;9.41;87.41;104736.91;10412250;28;20067;-72
2022/03/19 10:17:37;;;;;;;0.00;0.00;;;;;;;9.59;85.42;104740.69;10411197;28;20018;-72
2022/03/19 10:22:42;;;;;;;0.00;0.00;;;;;;;9.59;83.47;104751.31;10412089;28;20052;-72
2022/03/19 10:27:44;;;;;;;0.00;0.00;;;;;;;9.37;81.37;104727.31;10411069;28;20029;-72
2022/03/19 10:32:53;;;;;;;0.10;0.10;;;;;;;9.50;83.26;104716.13;10410780;28;20024;-72
2022/03/19 10:37:54;;;;;;;0.00;0.00;;;;;;;9.70;81.85;104717.19;10410799;28;20021;-72
2022/03/19 10:42:57;;;;;;;0.10;0.10;;;;;;;9.85;84.14;104715.72;10411022;28;20396;-72
2022/03/19 10:48:01;;;;;;;0.05;0.05;;;;;;;10.08;82.67;104723.69;10409945;28;20445;-73
2022/03/19 10:53:02;;;;;;;0.10;0.10;;;;;;;10.00;79.16;104703.59;10410094;28;20025;-72
2022/03/19 10:58:03;;;;;;;0.00;0.00;;;;;;;10.09;75.50;104689.91;10392023;28;20017;-73
2022/03/19 11:03:12;;;;;;;0.00;0.00;;;;;;;10.18;76.00;104682.44;10409844;28;20389;-72
2022/03/19 11:08:13;;;;;;;0.05;0.05;;;;;;;10.01;74.63;104684.06;10409881;28;20025;-73
2022/03/19 11:13:20;;;;;;;0.00;0.00;;;;;;;10.05;77.60;104688.31;10409385;28;20103;-73
2022/03/19 11:18:23;;;;;;;0.10;0.10;;;;;;;10.21;76.29;104676.13;10409821;28;20013;-72
2022/03/19 11:23:30;;;;;;;0.10;0.10;;;;;;;10.20;78.89;104685.03;10409842;28;20465;-72
2022/03/19 11:28:33;;;;;;;0.10;0.10;;;;;;;10.32;76.75;104665.91;10409479;28;20029;-72
2022/03/19 11:33:36;;;;;;;0.10;0.10;;;;;;;10.33;76.16;104662.31;10408360;28;20021;-72
2022/03/19 11:38:52;;;;;;;0.10;0.10;;;;;;;10.26;70.69;104668.78;10410184;28;20051;-73
2022/03/19 11:44:17;;;;;;;0.10;0.10;;;;;;;10.02;75.76;104629.84;10409529;28;20061;-72
2022/03/19 11:49:48;;;;;;;0.10;0.10;;;;;;;9.93;72.35;104637.28;10409332;28;20049;-72
2022/03/19 11:55:03;;;;;;;0.10;0.10;;;;;;;10.08;72.66;104594.97;10409984;28;20130;-73
2022/03/19 12:00:05;;;;;;;0.10;0.10;;;;;;;10.03;73.34;104592.47;10391690;28;20017;-73
2022/03/19 12:05:15;;;;;;;0.00;0.00;;;;;;;10.15;72.11;104591.09;10409591;28;20053;-73
2022/03/19 12:10:24;;;;;;;0.05;0.05;;;;;;;10.04;73.32;104590.69;10408980;28;20033;-73
2022/03/19 12:15:33;;;;;;;0.10;0.10;;;;;;;10.12;73.68;104592.13;10409216;28;20096;-72
2022/03/19 12:20:42;;;;;;;0.00;0.00;;;;;;;9.88;74.71;104569.16;10409422;28;20025;-72
2022/03/19 12:25:48;;;;;;;0.10;0.10;;;;;;;9.94;74.84;104579.53;10416281;28;20025;-72
2022/03/19 12:30:49;;;;;;;0.10;0.10;;;;;;;9.88;73.93;104574.47;10415914;28;20380;-72
2022/03/19 12:35:49;;;;;;;0.00;0.00;;;;;;;9.92;77.39;104557.44;10415190;28;20029;-71
2022/03/19 12:46:10;;;;;;;0.00;0.00;;;;;;;10.01;76.51;104543.75;10414940;28;20394;-73
2022/03/19 12:51:21;;;;;;;0.10;0.10;;;;;;;9.72;74.68;104536.97;10398706;28;20022;-72
2022/03/19 12:56:23;;;;;;;0.00;0.00;;;;;;;9.72;75.20;104548.47;10415169;28;20552;-71
2022/03/19 13:01:28;;;;;;;0.10;0.10;;;;;;;9.80;76.58;104558.78;10414966;28;20087;-71
2022/03/19 13:06:36;;;;;;;0.00;0.00;;;;;;;9.91;79.02;104523.75;10415487;28;20029;-71
2022/03/19 13:11:49;;;;;;;0.00;0.00;;;;;;;9.87;78.94;104493.72;10413460;28;20024;-71
2022/03/19 13:16:54;;;;;;;0.10;0.10;;;;;;;9.93;79.44;104525.41;10415166;28;20022;-71
2022/03/19 13:21:56;;;;;;;0.00;0.00;;;;;;;9.86;76.20;104502.66;10414539;28;20021;-71
2022/03/19 13:26:57;;;;;;;0.10;0.10;;;;;;;9.90;78.03;104490.94;10414400;28;20061;-71
2022/03/19 13:32:24;;;;;;;0.10;0.10;;;;;;;9.88;79.66;104497.25;10411183;28;20432;-71
2022/03/19 13:37:24;;;;;;;0.00;0.00;;;;;;;9.73;79.75;104512.94;10410173;28;20025;-70
2022/03/19 13:42:31;;;;;;;0.03;0.03;;;;;;;9.73;82.53;104482.78;10413927;28;20052;-71
2022/03/19 13:47:39;;;;;;;0.10;0.10;;;;;;;9.76;79.91;104501.28;10412664;28;20410;-71
2022/03/19 13:52:42;;;;;;;0.10;0.10;;;;;;;9.67;81.22;104472.41;10391757;28;20018;-71
2022/03/19 13:57:47;;;;;;;0.10;0.10;;;;;;;9.69;79.12;104452.78;10394508;28;20469;-71
2022/03/19 14:03:03;;;;;;;0.10;0.10;;;;;;;9.72;81.28;104463.28;10393569;28;20537;-71
2022/03/19 14:08:15;;;;;;;0.00;0.00;;;;;;;9.82;85.53;104444.25;10407312;28;20017;-71
2022/03/19 14:13:18;;;;;;;0.10;0.10;;;;;;;9.46;84.48;104447.53;10411425;28;20104;-71
2022/03/19 14:18:30;;;;;;;0.00;0.00;;;;;;;9.37;82.65;104430.16;10394424;28;20017;-71
2022/03/19 14:23:37;;;;;;;0.08;0.08;;;;;;;9.40;81.73;104435.34;10411679;28;20029;-71
2022/03/19 14:28:38;;;;;;;0.10;0.10;;;;;;;9.42;82.46;104422.84;10393606;28;20119;-71
2022/03/19 14:33:38;;;;;;;0.10;0.10;;;;;;;9.37;80.48;104410.69;10393528;28;20049;-72
2022/03/19 14:38:40;;;;;;;0.10;0.10;;;;;;;9.30;81.38;104412.69;10411674;28;20391;-71
2022/03/19 14:43:45;;;;;;;0.03;0.03;;;;;;;9.30;82.70;104402.06;10407236;28;20038;-71
2022/03/19 14:48:45;;;;;;;;;;;;;;;9.24;82.97;104407.63;10410217;28;20128;-71
2022/03/19 14:53:46;;;;;;;0.05;0.05;;;;;;;9.18;81.96;104406.09;10411323;28;20043;-71
2022/03/19 14:58:47;;;;;;;0.00;0.00;;;;;;;9.17;81.70;104379.56;10410777;28;20036;-72
2022/03/19 15:03:48;;;;;;;0.00;0.00;;;;;;;9.32;88.61;104402.00;10410648;28;20031;-70
2022/03/19 15:08:49;;;;;;;0.00;0.00;;;;;;;9.09;83.37;104384.34;10408876;28;20063;-70
2022/03/19 15:13:50;;;;;;;0.00;0.00;;;;;;;9.12;86.80;104392.19;10404950;28;20064;-70
2022/03/19 15:18:52;;;;;;;0.10;0.10;;;;;;;8.66;86.50;104405.50;10407681;28;20034;-70
2022/03/19 15:23:52;;;;;;;0.05;0.05;;;;;;;8.62;88.19;104398.59;10407931;28;20438;-70
2022/03/19 15:28:53;;;;;;;0.00;0.00;;;;;;;8.73;85.13;104379.56;10408890;28;20026;-70
2022/03/19 15:33:53;;;;;;;0.00;0.00;;;;;;;8.58;88.00;104379.25;10408859;28;20427;-75
2022/03/19 15:38:53;;;;;;;0.00;0.00;;;;;;;8.38;87.40;104384.41;10408340;28;20013;-70
2022/03/19 15:43:54;;;;;;;0.00;0.00;;;;;;;8.22;91.22;104357.53;10407936;28;20472;-70
2022/03/19 15:48:54;;;;;;;0.00;0.00;;;;;;;8.14;90.95;104386.16;10408289;28;20554;-70
2022/03/19 15:53:54;;;;;;;0.00;0.00;;;;;;;8.05;92.25;104359.97;10408090;28;20436;-70
2022/03/19 15:58:55;;;;;;;0.00;0.00;;;;;;;8.00;90.71;104351.28;10393026;28;20078;-70
2022/03/19 16:03:55;;;;;;;0.00;0.00;;;;;;;7.92;92.33;104348.94;10405385;28;20438;-70
2022/03/19 16:08:57;;;;;;;0.00;0.00;;;;;;;7.81;90.99;104348.44;10406718;28;20152;-70
2022/03/19 16:13:57;;;;;;;0.08;0.08;;;;;;;7.68;91.92;104338.28;10405377;28;20026;-70
2022/03/19 16:18:58;;;;;;;0.00;0.00;;;;;;;7.54;94.08;104342.34;10386683;28;20051;-70
2022/03/19 16:23:58;;;;;;;0.00;0.00;;;;;;;7.42;94.32;104343.63;10406127;28;20033;-70
2022/03/19 16:28:58;;;;;;;0.00;0.00;;;;;;;7.34;96.37;104348.31;10402417;28;20022;-70
2022/03/19 16:33:58;;;;;;;0.00;0.00;;;;;;;7.19;96.31;104342.63;10405074;28;21690;-70
2022/03/19 16:38:59;;;;;;;0.00;0.00;;;;;;;7.11;97.87;104333.19;10406220;28;20017;-70
2022/03/19 16:43:59;;;;;;;0.00;0.00;;;;;;;6.97;97.76;104331.84;10405937;28;20025;-70
2022/03/19 16:48:59;;;;;;;0.00;0.00;;;;;;;6.84;99.00;104345.56;10406640;28;20025;-70
2022/03/19 16:54:00;;;;;;;0.00;0.00;;;;;;;6.68;99.92;104340.72;10407322;28;20045;-70
2022/03/19 16:59:00;;;;;;;0.00;0.00;;;;;;;6.50;100.00;104330.69;10408131;28;20279;-70
2022/03/19 17:04:00;;;;;;;0.00;0.00;;;;;;;6.37;100.00;104350.50;10405461;28;20099;-69
2022/03/19 17:09:02;;;;;;;0.00;0.00;;;;;;;6.22;100.00;104343.88;10410542;28;20413;-70
2022/03/19 17:14:02;;;;;;;0.00;0.00;;;;;;;6.09;100.00;104352.19;10414805;28;20029;-69
2022/03/19 17:19:03;;;;;;;0.00;0.00;;;;;;;5.89;100.00;104344.75;10415121;28;20025;-69
2022/03/19 17:24:04;;;;;;;0.00;0.00;;;;;;;5.71;100.00;104333.81;10414670;28;20275;-69
2022/03/19 17:29:04;;;;;;;0.00;0.00;;;;;;;5.62;100.00;104342.88;10415098;28;20026;-69
2022/03/19 17:34:04;;;;;;;0.00;0.00;;;;;;;5.47;100.00;104344.16;10414834;28;20056;-69
2022/03/19 17:39:05;;;;;;;0.00;0.00;;;;;;;5.37;100.00;104359.34;10396350;28;20412;-69
2022/03/19 17:44:05;;;;;;;0.00;0.00;;;;;;;5.27;100.00;104380.78;10414700;28;20078;-69
2022/03/19 17:49:05;;;;;;;0.00;0.00;;;;;;;5.19;100.00;104346.63;10396931;28;20034;-69
2022/03/19 17:54:05;;;;;;;0.00;0.00;;;;;;;4.99;100.00;104341.81;10413776;28;20029;-69
2022/03/19 17:59:06;;;;;;;0.00;0.00;;;;;;;4.87;100.00;104339.47;10413474;28;20731;-70
2022/03/19 18:04:06;;;;;;;0.00;0.00;;;;;;;4.76;100.00;104347.63;10413270;28;20017;-69
2022/03/19 18:09:07;;;;;;;0.00;0.00;;;;;;;4.62;100.00;104344.44;10412299;28;20036;-70
2022/03/19 18:14:07;;;;;;;0.00;0.00;;;;;;;4.49;100.00;104343.84;10412785;28;20387;-69
2022/03/19 18:19:08;;;;;;;0.00;0.00;;;;;;;4.45;100.00;104348.31;10403953;28;20274;-70
2022/03/19 18:24:08;;;;;;;0.00;0.00;;;;;;;4.36;100.00;104347.63;10412741;28;20461;-69
2022/03/19 18:29:09;;;;;;;0.00;0.00;;;;;;;4.29;100.00;104346.91;10412805;28;20037;-70
2022/03/19 18:34:10;;;;;;;0.00;0.00;;;;;;;4.28;100.00;104345.16;10410783;28;20252;-69
2022/03/19 18:39:10;;;;;;;0.00;0.00;;;;;;;4.15;100.00;104351.59;10410722;28;20457;-69
2022/03/19 18:44:12;;;;;;;0.00;0.00;;;;;;;4.06;100.00;104352.66;10393906;28;20396;-69
2022/03/19 18:49:12;;;;;;;0.00;0.00;;;;;;;3.98;100.00;104352.78;10411330;28;20040;-70
2022/03/19 18:54:12;;;;;;;0.00;0.00;;;;;;;3.84;100.00;104352.22;10411306;28;20013;-69
2022/03/19 18:59:12;;;;;;;0.00;0.00;;;;;;;3.79;100.00;104360.19;10410838;28;20033;-69
2022/03/19 19:04:13;;;;;;;0.03;0.03;;;;;;;3.67;100.00;104346.38;10411478;28;20381;-69
2022/03/19 19:09:13;;;;;;;0.00;0.00;;;;;;;3.53;100.00;104355.38;10411035;28;20291;-69
2022/03/19 19:14:14;;;;;;;0.00;0.00;;;;;;;3.52;100.00;104343.13;10410452;28;20260;-69
2022/03/19 19:19:14;;;;;;;0.00;0.00;;;;;;;3.46;100.00;104337.06;10410465;28;20465;-69
2022/03/19 19:24:14;;;;;;;0.00;0.00;;;;;;;3.40;100.00;104338.94;10410274;28;20409;-69
2022/03/19 19:29:17;;;;;;;0.00;0.00;;;;;;;3.32;100.00;104339.97;10410025;28;20469;-69
2022/03/19 19:34:18;;;;;;;0.00;0.00;;;;;;;3.28;100.00;104335.63;10409748;28;20028;-69
2022/03/19 19:39:19;;;;;;;0.00;0.00;;;;;;;3.31;100.00;104341.69;10409984;28;20037;-69
2022/03/19 19:44:19;;;;;;;0.00;0.00;;;;;;;3.18;100.00;104333.13;10409767;28;20035;-69
2022/03/19 19:49:19;;;;;;;0.00;0.00;;;;;;;3.11;100.00;104331.50;10409552;28;20018;-70
2022/03/19 19:54:20;;;;;;;0.00;0.00;;;;;;;2.91;100.00;104309.88;10424263;23;20335;-91
2022/03/19 19:59:21;;;;;;;0.00;0.00;;;;;;;2.97;100.00;104316.78;10415276;28;20534;-90
2022/03/19 20:04:32;;;;;;;0.00;0.00;;;;;;;2.84;100.00;104301.19;10429085;28;20083;-90
2022/03/19 20:09:32;;;;;;;0.00;0.00;;;;;;;2.93;100.00;104322.09;10401627;28;20058;-89
2022/03/19 20:14:32;;;;;;;0.00;0.00;;;;;;;2.94;100.00;104301.94;10421364;28;20028;-91
2022/03/19 20:19:33;;;;;;;0.03;0.03;;;;;;;2.93;100.00;104308.06;10415557;28;20288;-90
2022/03/19 20:24:33;;;;;;;0.10;0.10;;;;;;;3.05;100.00;104314.91;10411213;28;20124;-90
2022/03/19 20:29:34;;;;;;;0.00;0.00;;;;;;;2.84;100.00;104282.75;10417847;28;20029;-91
2022/03/19 20:34:44;;;;;;;0.00;0.00;;;;;;;2.93;100.00;104295.78;10403747;28;20100;-90
2022/03/19 20:39:45;;;;;;;0.10;0.10;;;;;;;2.94;100.00;104308.06;10409673;28;20056;-90
2022/03/19 20:44:46;;;;;;;0.00;0.00;;;;;;;2.96;100.00;104302.75;10427866;28;20028;-92
2022/03/19 20:55:06;;;;;;;0.10;0.10;;;;;;;2.79;100.00;104254.75;10426784;28;20029;-92
2022/03/19 21:00:21;;;;;;;0.00;0.00;;;;;;;2.84;100.00;104264.34;10420461;28;20025;-91
2022/03/19 21:05:24;;;;;;;0.00;0.00;;;;;;;2.76;100.00;104257.44;10408259;28;20021;-91
2022/03/19 21:10:27;;;;;;;0.00;0.00;;;;;;;2.79;100.00;104257.41;10413488;28;20121;-90
2022/03/19 21:15:30;;;;;;;0.00;0.00;;;;;;;2.88;100.00;104280.94;10436535;22;20033;-70
2022/03/19 21:20:35;;;;;;;0.00;0.00;;;;;;;2.86;100.00;104257.28;10452760;28;20435;-70
2022/03/19 21:25:35;;;;;;;0.10;0.10;;;;;;;2.85;100.00;104260.81;10452588;28;20024;-70
2022/03/19 21:30:37;;;;;;;0.00;0.00;;;;;;;2.85;100.00;104266.09;10433781;28;20024;-70
2022/03/19 21:35:37;;;;;;;0.00;0.00;;;;;;;2.82;100.00;104259.97;10451331;28;20108;-70
2022/03/19 21:40:50;;;;;;;0.03;0.03;;;;;;;2.78;100.00;104253.03;10452094;28;20013;-70
2022/03/19 21:45:56;;;;;;;0.00;0.00;;;;;;;2.77;100.00;104246.03;10451227;28;20358;-70
2022/03/19 21:50:58;;;;;;;0.00;0.00;;;;;;;2.75;100.00;104246.06;10452504;28;20013;-70
2022/03/19 21:55:58;;;;;;;0.10;0.10;;;;;;;2.69;100.00;104252.28;10444199;28;20021;-70
2022/03/19 22:00:59;;;;;;;0.10;0.10;;;;;;;2.64;100.00;104247.97;10447469;28;20017;-70
2022/03/19 22:06:00;;;;;;;0.10;0.10;;;;;;;2.62;100.00;104248.03;10433369;28;20013;-70
2022/03/19 22:11:00;;;;;;;0.05;0.05;;;;;;;2.66;100.00;104227.78;10451935;28;20386;-70
2022/03/19 22:16:00;;;;;;;0.00;0.00;;;;;;;2.58;100.00;104230.53;10451252;28;20083;-70
2022/03/19 22:21:02;;;;;;;0.10;0.10;;;;;;;2.54;100.00;104246.41;10451191;28;20139;-69
2022/03/19 22:26:03;;;;;;;0.08;0.08;;;;;;;2.53;100.00;104231.47;10442674;28;20268;-69
2022/03/19 22:31:04;;;;;;;0.10;0.10;;;;;;;2.46;100.00;104241.25;10428416;28;20021;-69
2022/03/19 22:36:05;;;;;;;0.10;0.10;;;;;;;2.38;100.00;104232.59;10449100;28;20028;-69
2022/03/19 22:41:05;;;;;;;0.05;0.05;;;;;;;2.35;100.00;104230.00;10449475;28;20115;-69
2022/03/19 22:46:06;;;;;;;0.00;0.00;;;;;;;2.35;100.00;104238.75;10449721;28;20021;-70
2022/03/19 22:51:07;;;;;;;0.00;0.00;;;;;;;2.28;100.00;104238.88;10448731;28;20056;-69
2022/03/19 22:56:08;;;;;;;0.10;0.10;;;;;;;2.21;100.00;104220.56;10441769;28;20047;-69
2022/03/19 23:01:09;;;;;;;0.10;0.10;;;;;;;2.12;100.00;104220.66;10443857;28;20039;-69
2022/03/19 23:06:10;;;;;;;0.10;0.10;;;;;;;2.07;100.00;104219.03;10447650;28;20099;-69
2022/03/19 23:11:25;;;;;;;0.00;0.00;;;;;;;2.00;100.00;104228.72;10448458;28;20104;-69
2022/03/19 23:16:25;;;;;;;0.10;0.10;;;;;;;2.03;100.00;104205.88;10440354;28;20021;-69
2022/03/19 23:21:26;;;;;;;0.10;0.10;;;;;;;2.03;100.00;104210.28;10432703;28;20028;-69
2022/03/19 23:26:27;;;;;;;0.00;0.00;;;;;;;1.99;100.00;104217.34;10438829;28;20025;-70
2022/03/19 23:31:28;;;;;;;0.00;0.00;;;;;;;1.94;100.00;104205.16;10426045;28;20112;-69
2022/03/19 23:36:28;;;;;;;0.13;0.13;;;;;;;1.97;100.00;104211.22;10447930;28;20439;-69
2022/03/19 23:41:28;;;;;;;0.00;0.00;;;;;;;1.91;100.00;104184.16;10448800;28;20106;-69
2022/03/19 23:46:29;;;;;;;0.00;0.00;;;;;;;1.79;100.00;104191.31;10448051;28;20013;-69
2022/03/19 23:51:29;;;;;;;0.10;0.10;;;;;;;1.74;100.00;104187.00;10448353;28;20048;-70
2022/03/19 23:56:30;;;;;;;0.10;0.10;;;;;;;1.69;100.00;104178.31;10439985;28;20023;-69
